Terminal Aerodrome Forecast
Issued by NWS Charleston, SC

Home | Current Version | Previous Version | Text Only | Print | Product List | Glossary On
Versions: 1 2 3 4 5 6 7 8 9 10 11 12 13 14 15 16 17 18 19 20 21 22 23 24 25
000
FTUS42 KCHS 060202 AAA
TAFCHS
TAF AMD
KCHS 060202Z 0602/0624 VRB06KT P6SM FEW010 SCT020 BKN250
     FM061800 20012KT P6SM VCTS SCT035CB SCT100 BKN150=

USA.gov is the U.S. government's official web portal to all federal, state and local government web resources and services.